Time;durP1;ratioP1;P1;durP2;ratioP2;P2;SDS_P1;SDS_P2;PMS_P1;PMS_P2;Temp;Humidity;BMP_temperature;BMP_pressure;BME280_temperature;BME280_humidity;BME280_pressure;Samples;Min_cycle;Max_cycle;Signal;HPM_P1;HPM_P2
2021/01/09 00:01:49;;;;;;;15.65;8.48;;;0.60;96.10;;;;;;5030546;28;20487;-64
2021/01/09 00:04:14;;;;;;;13.75;8.65;;;0.60;96.00;;;;;;5032865;28;20029;-65
2021/01/09 00:06:40;;;;;;;14.73;8.55;;;0.60;96.10;;;;;;5031825;28;20021;-65
2021/01/09 00:09:06;;;;;;;17.63;8.90;;;0.60;96.20;;;;;;5033938;28;20328;-65
2021/01/09 00:11:33;;;;;;;15.45;8.68;;;0.60;96.20;;;;;;5031642;28;20036;-64
2021/01/09 00:13:59;;;;;;;16.00;9.30;;;0.60;96.30;;;;;;5022609;28;20128;-64
2021/01/09 00:16:25;;;;;;;16.33;8.90;;;0.60;96.20;;;;;;5030478;28;20028;-64
2021/01/09 00:18:53;;;;;;;16.98;9.02;;;0.60;96.20;;;;;;5033403;28;20094;-65
2021/01/09 00:21:19;;;;;;;15.07;8.63;;;0.60;96.20;;;;;;5034079;28;20028;-64
2021/01/09 00:23:45;;;;;;;15.68;8.73;;;0.50;96.30;;;;;;5036343;28;20390;-64
2021/01/09 00:26:10;;;;;;;12.23;7.07;;;0.60;96.30;;;;;;5076336;22;20052;-66
2021/01/09 00:28:36;;;;;;;16.75;9.15;;;0.60;96.30;;;;;;5068585;28;20084;-68
2021/01/09 00:31:03;;;;;;;15.07;8.95;;;0.60;96.20;;;;;;5070486;28;20032;-68
2021/01/09 00:33:28;;;;;;;16.77;9.15;;;0.60;96.30;;;;;;5069987;28;20027;-67
2021/01/09 00:35:56;;;;;;;14.57;8.95;;;0.60;96.30;;;;;;5068581;28;20484;-66
2021/01/09 00:38:23;;;;;;;17.88;10.25;;;0.60;96.20;;;;;;5069485;28;20088;-67
2021/01/09 00:40:49;;;;;;;18.92;9.93;;;0.60;96.20;;;;;;5068290;28;20035;-67
2021/01/09 00:43:15;;;;;;;17.63;10.30;;;0.70;96.30;;;;;;5069184;28;20477;-68
2021/01/09 00:45:40;;;;;;;17.52;10.18;;;0.70;96.30;;;;;;5069319;28;20085;-68
2021/01/09 00:48:06;;;;;;;18.48;10.30;;;0.70;96.30;;;;;;5067726;28;20034;-65
2021/01/09 00:50:32;;;;;;;18.13;10.27;;;0.70;96.30;;;;;;5084392;28;20024;-65
2021/01/09 00:52:57;;;;;;;19.20;9.70;;;0.70;96.20;;;;;;5090139;28;20484;-67
2021/01/09 00:55:23;;;;;;;20.08;10.93;;;0.70;96.30;;;;;;5087063;28;20020;-66
2021/01/09 00:57:49;;;;;;;20.02;10.70;;;0.70;96.30;;;;;;5091970;28;20028;-65
2021/01/09 01:00:15;;;;;;;17.95;10.93;;;0.70;96.20;;;;;;5088959;28;20032;-66
2021/01/09 01:02:40;;;;;;;17.23;9.93;;;0.80;96.20;;;;;;5091319;28;20032;-66
2021/01/09 01:05:07;;;;;;;16.67;10.45;;;0.70;96.10;;;;;;5090817;28;20034;-66
2021/01/09 01:07:34;;;;;;;17.10;10.55;;;0.70;96.20;;;;;;5091621;28;20699;-67
2021/01/09 01:10:02;;;;;;;19.02;10.98;;;0.80;96.20;;;;;;5084092;28;20020;-67
2021/01/09 01:12:28;;;;;;;18.88;10.80;;;0.70;96.20;;;;;;5091633;28;20411;-67
2021/01/09 01:14:54;;;;;;;19.73;10.63;;;0.80;96.20;;;;;;5090607;28;20032;-65
2021/01/09 01:17:19;;;;;;;17.58;10.25;;;0.80;96.20;;;;;;5089874;28;20032;-66
2021/01/09 01:19:45;;;;;;;18.63;10.55;;;0.80;96.20;;;;;;5089194;28;20388;-66
2021/01/09 01:22:10;;;;;;;21.48;11.73;;;0.70;96.10;;;;;;5090544;28;20063;-66
2021/01/09 01:24:36;;;;;;;21.23;11.02;;;0.80;96.10;;;;;;5089301;28;20409;-66
2021/01/09 01:27:01;;;;;;;19.13;10.48;;;0.80;96.20;;;;;;5071371;28;20058;-66
2021/01/09 01:29:27;;;;;;;20.92;11.55;;;0.80;96.20;;;;;;5079207;28;20024;-69
2021/01/09 01:31:57;;;;;;;19.48;10.55;;;0.80;96.20;;;;;;5087180;28;20036;-66
2021/01/09 01:34:22;;;;;;;17.85;9.75;;;0.80;96.10;;;;;;5087653;28;20044;-66
2021/01/09 01:36:48;;;;;;;18.35;10.57;;;0.80;96.10;;;;;;5091429;28;20024;-66
2021/01/09 01:39:14;;;;;;;17.15;10.18;;;0.80;96.10;;;;;;5087253;28;20028;-65
2021/01/09 01:41:40;;;;;;;19.92;10.30;;;0.80;96.20;;;;;;5091417;28;20434;-68
2021/01/09 01:44:05;;;;;;;20.55;11.05;;;0.80;96.20;;;;;;5089836;28;20032;-67
2021/01/09 01:46:31;;;;;;;18.15;10.88;;;0.80;96.30;;;;;;5091350;28;20384;-67
2021/01/09 01:48:57;;;;;;;21.40;11.30;;;0.80;96.20;;;;;;5087532;28;20070;-67
2021/01/09 01:51:23;;;;;;;19.48;11.48;;;0.90;96.20;;;;;;5085132;28;20028;-67
2021/01/09 01:53:49;;;;;;;21.77;11.88;;;0.80;96.20;;;;;;5070711;28;20421;-68
2021/01/09 01:56:15;;;;;;;19.70;10.43;;;0.80;96.20;;;;;;5090740;28;20013;-68
2021/01/09 01:58:41;;;;;;;21.88;11.88;;;0.80;96.20;;;;;;5089827;28;22703;-67
2021/01/09 02:01:09;;;;;;;22.00;12.93;;;0.80;96.20;;;;;;5087202;28;20024;-68
2021/01/09 02:03:35;;;;;;;21.35;11.50;;;0.80;96.20;;;;;;5087037;28;20028;-67
2021/01/09 02:06:07;;;;;;;20.88;12.40;;;0.80;96.10;;;;;;5090518;28;20016;-67
2021/01/09 02:08:44;;;;;;;20.30;12.00;;;0.80;96.10;;;;;;5089134;28;20063;-67
2021/01/09 02:11:20;;;;;;;24.10;12.18;;;0.80;96.10;;;;;;5072905;28;20028;-67
2021/01/09 02:13:57;;;;;;;19.00;12.32;;;0.80;96.10;;;;;;5084060;28;20031;-67
2021/01/09 02:16:24;;;;;;;22.02;12.82;;;0.80;96.10;;;;;;5091337;28;20028;-67
2021/01/09 02:18:50;;;;;;;24.30;12.60;;;0.80;96.00;;;;;;5088975;28;20516;-67
2021/01/09 02:21:39;;;;;;;25.05;12.90;;;0.80;96.10;;;;;;5083561;28;20047;-67
2021/01/09 02:24:13;;;;;;;24.40;13.32;;;0.80;96.10;;;;;;5089380;28;20024;-68
2021/01/09 02:26:38;;;;;;;21.88;12.82;;;0.70;96.10;;;;;;5089115;28;20035;-67
2021/01/09 02:29:04;;;;;;;25.08;13.15;;;0.80;96.10;;;;;;5086502;28;20396;-68
2021/01/09 02:32:05;;;;;;;22.05;12.80;;;0.70;96.10;;;;;;5074527;28;20020;-67
2021/01/09 02:34:38;;;;;;;20.58;12.23;;;0.80;96.20;;;;;;5050746;28;20471;-68
2021/01/09 02:37:04;;;;;;;22.98;12.90;;;0.70;96.20;;;;;;5072157;28;20033;-68
2021/01/09 02:39:32;;;;;;;23.85;13.70;;;0.70;96.20;;;;;;5087421;28;20032;-67
2021/01/09 02:41:58;;;;;;;24.02;13.85;;;0.70;96.10;;;;;;5089772;28;20551;-67
2021/01/09 02:44:24;;;;;;;26.52;13.70;;;0.70;96.00;;;;;;5088680;28;20103;-67
2021/01/09 02:46:49;;;;;;;25.92;14.38;;;0.70;96.10;;;;;;5089878;28;20097;-67
2021/01/09 02:49:15;;;;;;;28.60;14.98;;;0.70;96.20;;;;;;5068847;28;20040;-67
2021/01/09 02:51:41;;;;;;;24.55;14.05;;;0.70;96.20;;;;;;5083903;28;20029;-67
2021/01/09 02:54:06;;;;;;;26.58;15.60;;;0.70;96.30;;;;;;5083369;28;20043;-67
2021/01/09 02:56:32;;;;;;;28.23;16.13;;;0.70;96.20;;;;;;5089704;28;20032;-67
2021/01/09 02:58:57;;;;;;;29.83;15.85;;;0.70;96.20;;;;;;5085324;28;20039;-67
2021/01/09 03:01:27;;;;;;;35.13;16.90;;;0.70;96.30;;;;;;5086573;28;20028;-68
2021/01/09 03:03:53;;;;;;;29.88;16.55;;;0.70;96.20;;;;;;5088936;28;20032;-68
2021/01/09 03:06:19;;;;;;;29.35;16.13;;;0.70;96.30;;;;;;5089762;28;20411;-67
2021/01/09 03:08:44;;;;;;;28.45;16.08;;;0.70;96.40;;;;;;5060455;28;20057;-68
2021/01/09 03:11:10;;;;;;;31.88;17.55;;;0.70;96.30;;;;;;5088316;28;20024;-68
2021/01/09 03:13:35;;;;;;;29.92;15.68;;;0.70;96.30;;;;;;5089589;28;20039;-67
2021/01/09 03:16:01;;;;;;;33.88;16.92;;;0.70;96.30;;;;;;5088083;28;20024;-67
2021/01/09 03:18:27;;;;;;;30.08;16.05;;;0.70;96.30;;;;;;5087146;28;20028;-67
2021/01/09 03:20:52;;;;;;;33.05;16.75;;;0.70;96.40;;;;;;5087952;28;20031;-67
2021/01/09 03:23:18;;;;;;;29.95;16.27;;;0.70;96.40;;;;;;5088976;28;20564;-68
2021/01/09 03:25:44;;;;;;;30.50;14.77;;;0.70;96.40;;;;;;5082391;28;20078;-68
2021/01/09 03:28:09;;;;;;;32.75;15.65;;;0.60;96.40;;;;;;5075887;28;20459;-68
2021/01/09 03:30:35;;;;;;;28.00;15.07;;;0.70;96.40;;;;;;5084102;28;20020;-68
2021/01/09 03:33:00;;;;;;;27.63;14.80;;;0.70;96.40;;;;;;5084209;28;20051;-67
2021/01/09 03:35:26;;;;;;;30.70;16.13;;;0.70;96.40;;;;;;5087777;28;20032;-68
2021/01/09 03:37:52;;;;;;;29.45;16.55;;;0.60;96.50;;;;;;5089561;28;20054;-67
2021/01/09 03:40:18;;;;;;;27.13;13.77;;;0.70;96.50;;;;;;5088460;28;20028;-67
2021/01/09 03:42:44;;;;;;;25.80;14.50;;;0.60;96.50;;;;;;5086552;28;20051;-68
2021/01/09 03:45:10;;;;;;;25.33;14.27;;;0.70;96.50;;;;;;5088575;28;20052;-68
2021/01/09 03:47:36;;;;;;;28.00;14.50;;;0.60;96.60;;;;;;5088329;28;20024;-68
2021/01/09 03:50:02;;;;;;;27.50;13.88;;;0.70;96.60;;;;;;5087725;28;20487;-68
2021/01/09 03:52:28;;;;;;;24.23;12.93;;;0.70;96.60;;;;;;5088952;28;20028;-65
2021/01/09 03:54:53;;;;;;;23.55;12.60;;;0.70;96.70;;;;;;5092697;28;20085;-68
2021/01/09 03:57:19;;;;;;;26.20;13.35;;;0.60;96.60;;;;;;5092622;28;20027;-68
2021/01/09 03:59:44;;;;;;;28.25;13.93;;;0.60;96.60;;;;;;5090770;28;20301;-67
2021/01/09 04:02:10;;;;;;;25.88;14.15;;;0.60;96.60;;;;;;5091469;28;20107;-67
2021/01/09 04:04:36;;;;;;;25.48;13.93;;;0.60;96.70;;;;;;5092484;28;20016;-67
2021/01/09 04:07:01;;;;;;;24.30;13.52;;;0.60;96.60;;;;;;5088785;28;20039;-67
2021/01/09 04:09:27;;;;;;;26.38;13.57;;;0.60;96.70;;;;;;5082003;28;20031;-67
2021/01/09 04:11:52;;;;;;;25.08;13.38;;;0.60;96.70;;;;;;5090767;28;20035;-67
2021/01/09 04:14:18;;;;;;;24.50;12.38;;;0.60;96.70;;;;;;5091219;28;20048;-67
2021/01/09 04:16:44;;;;;;;21.92;12.48;;;0.50;96.60;;;;;;5092228;28;20428;-67
2021/01/09 04:19:09;;;;;;;23.67;12.45;;;0.60;96.60;;;;;;5091320;28;20054;-67
2021/01/09 04:21:52;;;;;;;24.63;13.07;;;0.50;96.60;;;;;;5090394;28;20423;-67
2021/01/09 04:24:19;;;;;;;25.25;13.10;;;0.60;96.50;;;;;;5091615;28;20099;-67
2021/01/09 04:26:45;;;;;;;23.70;12.32;;;0.60;96.50;;;;;;5084320;28;20032;-67
2021/01/09 04:29:10;;;;;;;26.80;14.27;;;0.60;96.50;;;;;;5088545;28;20028;-67
2021/01/09 04:31:36;;;;;;;26.55;13.85;;;0.60;96.50;;;;;;5093013;28;20158;-68
2021/01/09 04:34:01;;;;;;;24.77;14.32;;;0.60;96.50;;;;;;5093124;28;20024;-67
2021/01/09 04:36:27;;;;;;;28.60;14.57;;;0.60;96.40;;;;;;5091390;28;20039;-67
2021/01/09 04:38:52;;;;;;;30.13;15.50;;;0.60;96.50;;;;;;5089875;28;20046;-67
2021/01/09 04:41:22;;;;;;;31.55;15.88;;;0.60;96.50;;;;;;5090885;28;20028;-67
2021/01/09 04:43:49;;;;;;;33.92;16.83;;;0.60;96.50;;;;;;5085878;28;20027;-67
2021/01/09 04:46:16;;;;;;;32.15;16.42;;;0.60;96.50;;;;;;5090392;28;20295;-67
2021/01/09 04:48:44;;;;;;;30.30;15.32;;;0.60;96.60;;;;;;5090348;28;20024;-67
2021/01/09 04:51:10;;;;;;;34.55;17.08;;;0.60;96.60;;;;;;5090625;28;20059;-67
2021/01/09 04:53:39;;;;;;;35.45;17.02;;;0.60;96.70;;;;;;5092590;28;20028;-67
2021/01/09 04:56:05;;;;;;;38.78;18.67;;;0.60;96.70;;;;;;5090434;28;20024;-67
2021/01/09 04:58:31;;;;;;;36.63;18.95;;;0.60;96.80;;;;;;5089957;28;20032;-67
2021/01/09 05:00:57;;;;;;;39.38;18.33;;;0.60;96.70;;;;;;5088163;28;20122;-67
2021/01/09 05:03:23;;;;;;;35.20;16.73;;;0.60;96.80;;;;;;5077279;28;20036;-67
2021/01/09 05:05:50;;;;;;;36.60;18.00;;;0.60;96.70;;;;;;5081184;28;20021;-67
2021/01/09 05:08:15;;;;;;;37.15;17.98;;;0.60;96.70;;;;;;5087190;28;20046;-67
2021/01/09 05:10:42;;;;;;;34.08;18.17;;;0.60;96.70;;;;;;5089936;28;20024;-67
2021/01/09 05:13:07;;;;;;;40.55;18.73;;;0.60;96.70;;;;;;5092111;28;20039;-67
2021/01/09 05:15:39;;;;;;;38.75;17.77;;;0.60;96.70;;;;;;5090491;28;20404;-68
2021/01/09 05:18:06;;;;;;;35.35;17.55;;;0.60;96.70;;;;;;5084748;28;20028;-67
2021/01/09 05:20:33;;;;;;;36.85;17.38;;;0.60;96.80;;;;;;5087382;28;20027;-67
2021/01/09 05:23:00;;;;;;;32.70;16.17;;;0.60;96.50;;;;;;5091499;28;20046;-67
2021/01/09 05:25:27;;;;;;;35.33;17.27;;;0.60;96.40;;;;;;5079263;28;20028;-67
2021/01/09 05:27:54;;;;;;;29.50;15.18;;;0.60;96.40;;;;;;5079871;28;20036;-67
2021/01/09 05:30:21;;;;;;;28.95;14.98;;;0.60;96.40;;;;;;5080750;28;20031;-68
2021/01/09 05:32:46;;;;;;;29.73;15.73;;;0.60;96.30;;;;;;5090749;28;20032;-68
2021/01/09 05:35:13;;;;;;;31.17;15.65;;;0.60;96.30;;;;;;5090409;28;20118;-68
2021/01/09 05:37:39;;;;;;;32.25;16.50;;;0.60;96.10;;;;;;5088710;28;20036;-67
2021/01/09 05:40:06;;;;;;;33.25;16.58;;;0.60;96.20;;;;;;5085819;28;20119;-68
2021/01/09 05:42:33;;;;;;;32.28;15.98;;;0.70;96.20;;;;;;5091672;28;20507;-67
2021/01/09 05:44:59;;;;;;;34.78;17.50;;;0.60;96.20;;;;;;5088725;28;20442;-68
2021/01/09 05:47:29;;;;;;;33.35;17.17;;;0.60;96.40;;;;;;5083494;28;20016;-68
2021/01/09 05:49:59;;;;;;;38.08;18.58;;;0.60;96.40;;;;;;5086460;28;20035;-68
2021/01/09 05:52:27;;;;;;;36.97;18.63;;;0.60;96.40;;;;;;5087256;28;20077;-68
2021/01/09 05:55:01;;;;;;;33.83;16.77;;;0.60;96.40;;;;;;5089163;28;20114;-68
2021/01/09 05:57:29;;;;;;;33.67;16.23;;;0.60;96.40;;;;;;5085190;28;20587;-68
2021/01/09 05:59:59;;;;;;;32.03;15.77;;;0.60;96.50;;;;;;5083442;28;20035;-68
2021/01/09 06:02:26;;;;;;;26.33;14.23;;;0.60;96.30;;;;;;5089323;28;20468;-68
2021/01/09 06:04:59;;;;;;;26.67;14.57;;;0.60;96.30;;;;;;5089810;28;20056;-69
2021/01/09 06:07:31;;;;;;;28.85;14.63;;;0.60;96.20;;;;;;5084994;28;20107;-68
2021/01/09 06:10:03;;;;;;;29.52;14.45;;;0.60;96.10;;;;;;5087721;28;20028;-68
2021/01/09 06:12:34;;;;;;;22.90;13.82;;;0.60;96.10;;;;;;5091378;28;20106;-68
2021/01/09 06:15:03;;;;;;;29.00;15.60;;;0.60;96.10;;;;;;5088081;28;20024;-69
2021/01/09 06:17:30;;;;;;;29.38;13.90;;;0.60;96.10;;;;;;5082861;28;20032;-68
2021/01/09 06:19:56;;;;;;;28.73;14.98;;;0.60;96.10;;;;;;5069082;28;20059;-68
2021/01/09 06:22:23;;;;;;;25.90;14.05;;;0.50;96.00;;;;;;5070676;28;20503;-68
2021/01/09 06:24:49;;;;;;;28.50;14.75;;;0.50;96.00;;;;;;5089260;28;20099;-68
2021/01/09 06:27:24;;;;;;;26.27;14.65;;;0.50;96.00;;;;;;5102103;22;20487;-67
2021/01/09 06:29:51;;;;;;;26.88;14.63;;;0.60;96.00;;;;;;5062533;28;20052;-67
2021/01/09 06:32:19;;;;;;;25.05;14.23;;;0.50;95.90;;;;;;5067735;28;20049;-67
2021/01/09 06:34:48;;;;;;;27.95;14.07;;;0.60;96.10;;;;;;5064629;28;20078;-67
2021/01/09 06:37:22;;;;;;;25.42;12.90;;;0.50;95.70;;;;;;5042674;28;20427;-63
2021/01/09 06:39:49;;;;;;;23.40;12.70;;;0.50;95.70;;;;;;5037148;28;20108;-63
2021/01/09 06:42:17;;;;;;;24.08;12.18;;;0.50;95.60;;;;;;5038514;28;20029;-63
2021/01/09 06:44:50;;;;;;;22.63;12.38;;;0.60;95.70;;;;;;5039671;28;20043;-63
2021/01/09 06:47:28;;;;;;;22.98;12.68;;;0.50;95.60;;;;;;5027568;28;20117;-63
2021/01/09 06:49:54;;;;;;;23.02;12.63;;;0.60;95.60;;;;;;5039042;28;20152;-63
2021/01/09 06:52:20;;;;;;;22.27;12.27;;;0.50;95.60;;;;;;5040769;28;20077;-62
2021/01/09 06:54:46;;;;;;;20.55;11.27;;;0.50;95.70;;;;;;5038118;28;20021;-63
2021/01/09 06:57:21;;;;;;;22.13;12.27;;;0.50;95.50;;;;;;5037145;28;20493;-63
2021/01/09 06:59:50;;;;;;;24.08;11.93;;;0.50;95.60;;;;;;5039493;28;20456;-63
2021/01/09 07:02:16;;;;;;;22.75;12.27;;;0.50;95.60;;;;;;5040430;28;20032;-63
2021/01/09 07:04:56;;;;;;;24.15;12.52;;;0.50;95.60;;;;;;5040951;28;20029;-63
2021/01/09 07:07:32;;;;;;;24.13;12.35;;;0.50;95.70;;;;;;5038329;28;20026;-63
2021/01/09 07:10:28;;;;;;;22.42;11.73;;;0.50;95.70;;;;;;5038297;28;20484;-63
2021/01/09 07:12:56;;;;;;;22.70;12.63;;;0.50;95.60;;;;;;5036340;28;20083;-63
2021/01/09 07:15:23;;;;;;;21.83;12.10;;;0.50;95.60;;;;;;5035169;28;20029;-63
2021/01/09 07:17:55;;;;;;;20.05;11.65;;;0.40;95.40;;;;;;5041333;28;20370;-63
2021/01/09 07:20:23;;;;;;;24.70;12.75;;;0.50;95.30;;;;;;5038338;28;20060;-63
2021/01/09 07:22:56;;;;;;;19.65;11.75;;;0.50;95.40;;;;;;5040922;28;20045;-63
2021/01/09 07:25:48;;;;;;;21.00;11.43;;;0.50;95.50;;;;;;5027182;28;20735;-63
2021/01/09 07:28:22;;;;;;;20.65;11.60;;;0.40;95.30;;;;;;5038190;28;20041;-63
2021/01/09 07:31:02;;;;;;;31.42;17.35;;;0.50;95.50;;;;;;5041081;28;20462;-63
2021/01/09 07:33:30;;;;;;;28.08;16.15;;;0.50;95.40;;;;;;5038173;28;20025;-63
2021/01/09 07:35:57;;;;;;;27.63;14.35;;;0.50;95.50;;;;;;5016313;28;20108;-63
2021/01/09 07:38:23;;;;;;;23.70;14.55;;;0.50;95.50;;;;;;5026059;28;20217;-63
2021/01/09 07:40:56;;;;;;;27.80;15.77;;;0.50;95.50;;;;;;5038342;28;20384;-63
2021/01/09 07:43:42;;;;;;;23.85;13.77;;;0.50;95.60;;;;;;5030594;28;20033;-63
2021/01/09 07:46:29;;;;;;;24.50;15.00;;;0.50;95.70;;;;;;5037788;28;20017;-63
2021/01/09 07:48:56;;;;;;;24.23;14.23;;;0.50;95.60;;;;;;5017139;28;20032;-62
2021/01/09 07:51:50;;;;;;;25.58;14.35;;;0.50;95.60;;;;;;5024984;28;20051;-63
2021/01/09 07:54:40;;;;;;;25.60;13.70;;;0.50;95.60;;;;;;5024083;28;20183;-63
2021/01/09 07:57:18;;;;;;;27.17;16.15;;;0.40;95.50;;;;;;5025990;28;20026;-63
2021/01/09 08:00:04;;;;;;;26.63;14.70;;;0.50;95.70;;;;;;5003926;28;20753;-63
2021/01/09 08:02:38;;;;;;;28.00;15.45;;;0.50;95.70;;;;;;5005855;28;20281;-62
2021/01/09 08:05:05;;;;;;;26.20;15.00;;;0.50;95.70;;;;;;5004728;28;20120;-62
2021/01/09 08:07:31;;;;;;;24.48;13.75;;;0.50;95.50;;;;;;5006428;28;20073;-62
2021/01/09 08:09:58;;;;;;;29.90;15.95;;;0.50;95.50;;;;;;5009443;28;20178;-62
2021/01/09 08:12:27;;;;;;;31.23;16.30;;;0.50;95.70;;;;;;5006122;28;20060;-63
2021/01/09 08:14:56;;;;;;;24.05;14.30;;;0.50;95.70;;;;;;5005633;28;20052;-63
2021/01/09 08:17:22;;;;;;;25.05;14.27;;;0.50;95.60;;;;;;5005140;28;20057;-63
2021/01/09 08:19:48;;;;;;;27.02;16.08;;;0.50;95.70;;;;;;4940653;28;20040;-62
2021/01/09 08:22:14;;;;;;;27.75;16.70;;;0.50;95.80;;;;;;5008905;28;20755;-63
2021/01/09 08:24:40;;;;;;;29.55;15.90;;;0.50;95.90;;;;;;5002494;28;20132;-63
2021/01/09 08:27:06;;;;;;;27.88;15.95;;;0.50;95.90;;;;;;4998845;28;20411;-63
2021/01/09 08:29:32;;;;;;;26.75;15.88;;;0.50;95.90;;;;;;5002588;28;20029;-63
2021/01/09 08:31:58;;;;;;;24.63;14.98;;;0.50;95.80;;;;;;5015534;28;20090;-63
2021/01/09 08:34:25;;;;;;;22.98;14.07;;;0.50;95.90;;;;;;5021521;28;20498;-63
2021/01/09 08:36:56;;;;;;;27.42;15.80;;;0.50;95.90;;;;;;5016032;28;20025;-63
2021/01/09 08:39:21;;;;;;;25.58;14.90;;;0.50;96.10;;;;;;5012838;28;20021;-63
2021/01/09 08:41:47;;;;;;;24.73;14.05;;;0.60;96.10;;;;;;5026293;28;20076;-63
2021/01/09 08:44:14;;;;;;;30.13;14.73;;;0.60;96.10;;;;;;5024934;28;20271;-63
2021/01/09 08:46:42;;;;;;;25.60;14.82;;;0.60;96.10;;;;;;5023647;28;20021;-63
2021/01/09 08:49:25;;;;;;;26.77;14.50;;;0.60;96.10;;;;;;5015426;28;20041;-64
2021/01/09 08:52:05;;;;;;;23.25;12.48;;;0.70;96.00;;;;;;5021789;28;20538;-65
2021/01/09 08:54:32;;;;;;;24.67;13.55;;;0.70;96.00;;;;;;5025230;28;20037;-64
2021/01/09 08:57:00;;;;;;;24.55;12.82;;;0.60;96.00;;;;;;5025928;28;20029;-65
2021/01/09 08:59:26;;;;;;;22.77;12.45;;;0.70;96.00;;;;;;5021371;28;20040;-64
2021/01/09 09:01:56;;;;;;;23.23;12.27;;;0.60;95.90;;;;;;5014450;28;20022;-63
2021/01/09 09:04:23;;;;;;;22.17;12.65;;;0.70;96.00;;;;;;5024845;28;20093;-62
2021/01/09 09:07:13;;;;;;;23.85;12.70;;;0.70;96.00;;;;;;5025497;28;20432;-62
2021/01/09 09:09:41;;;;;;;23.38;12.45;;;0.70;96.00;;;;;;5022897;28;20095;-61
2021/01/09 09:12:07;;;;;;;22.00;11.98;;;0.70;96.10;;;;;;5024475;28;20105;-61
2021/01/09 09:14:33;;;;;;;24.20;12.68;;;0.70;96.10;;;;;;5023668;28;20127;-61
2021/01/09 09:17:01;;;;;;;21.77;11.70;;;0.70;96.10;;;;;;5024570;28;20113;-62
2021/01/09 09:19:27;;;;;;;22.33;13.13;;;0.60;96.10;;;;;;5023027;28;20137;-62
2021/01/09 09:21:58;;;;;;;23.45;12.23;;;0.60;96.20;;;;;;5020279;28;20057;-62
2021/01/09 09:24:45;;;;;;;20.77;11.80;;;0.60;96.20;;;;;;5014604;28;20026;-61
2021/01/09 09:27:23;;;;;;;24.30;12.55;;;0.60;96.20;;;;;;5024031;28;20078;-62
2021/01/09 09:29:49;;;;;;;23.67;13.48;;;0.70;96.40;;;;;;5023883;28;20344;-62
2021/01/09 09:32:26;;;;;;;24.17;12.60;;;0.60;96.20;;;;;;5023328;28;20095;-60
2021/01/09 09:34:53;;;;;;;24.67;14.05;;;0.60;96.30;;;;;;5025064;28;20033;-60
2021/01/09 09:37:18;;;;;;;22.83;12.63;;;0.70;96.40;;;;;;5024928;28;20083;-60
2021/01/09 09:39:44;;;;;;;22.52;12.50;;;0.70;96.40;;;;;;5018421;28;20492;-60
2021/01/09 09:42:10;;;;;;;21.60;11.57;;;0.60;96.40;;;;;;5026193;28;20035;-60
2021/01/09 09:44:39;;;;;;;23.77;12.30;;;0.60;96.40;;;;;;5021142;28;20178;-61
2021/01/09 09:47:09;;;;;;;22.90;11.90;;;0.60;96.50;;;;;;5021800;28;20413;-60
2021/01/09 09:49:36;;;;;;;22.02;10.02;;;0.50;96.40;;;;;;5019134;28;20041;-63
2021/01/09 09:52:15;;;;;;;22.13;11.70;;;0.50;96.60;;;;;;5024664;28;20037;-62
2021/01/09 09:54:40;;;;;;;22.08;12.57;;;0.50;96.70;;;;;;5022407;28;20047;-62
2021/01/09 09:57:06;;;;;;;23.83;12.15;;;0.50;96.80;;;;;;5025001;28;20021;-63
2021/01/09 09:59:31;;;;;;;28.33;11.77;;;0.60;96.90;;;;;;5012413;28;20112;-63
2021/01/09 10:02:01;;;;;;;19.67;10.90;;;0.50;96.70;;;;;;5020948;28;20415;-61
2021/01/09 10:04:28;;;;;;;20.33;11.00;;;0.40;96.80;;;;;;5016953;28;20041;-62
2021/01/09 10:06:54;;;;;;;22.90;11.55;;;0.40;96.80;;;;;;5021424;28;20222;-62
2021/01/09 10:09:22;;;;;;;21.50;11.07;;;0.50;96.80;;;;;;5017418;28;20392;-65
2021/01/09 10:11:49;;;;;;;19.35;10.90;;;0.60;96.80;;;;;;5021218;28;20087;-64
2021/01/09 10:14:15;;;;;;;18.55;10.00;;;0.70;96.70;;;;;;5020836;28;20066;-64
2021/01/09 10:16:41;;;;;;;16.73;9.27;;;0.70;96.50;;;;;;5026936;28;20127;-65
2021/01/09 10:19:10;;;;;;;16.08;8.95;;;0.70;96.00;;;;;;5018177;28;20078;-66
2021/01/09 10:21:36;;;;;;;16.60;8.45;;;0.80;95.80;;;;;;5019233;28;20048;-68
2021/01/09 10:24:02;;;;;;;13.18;7.97;;;0.80;95.30;;;;;;5020010;28;20053;-65
2021/01/09 10:26:29;;;;;;;15.45;8.45;;;0.80;95.10;;;;;;5017755;28;20144;-65
2021/01/09 10:28:56;;;;;;;17.38;8.50;;;0.80;94.60;;;;;;5016871;28;20061;-62
2021/01/09 10:31:33;;;;;;;16.80;9.25;;;0.80;95.00;;;;;;5020025;28;20133;-63
2021/01/09 10:33:59;;;;;;;16.75;10.25;;;0.90;95.20;;;;;;5019194;28;20025;-62
2021/01/09 10:36:30;;;;;;;17.55;9.10;;;0.80;95.30;;;;;;5024104;28;20120;-63
2021/01/09 10:38:57;;;;;;;21.02;10.25;;;0.80;95.50;;;;;;5021148;28;20022;-62
2021/01/09 10:41:23;;;;;;;19.38;10.35;;;0.70;95.60;;;;;;5013530;28;20025;-62
2021/01/09 10:43:49;;;;;;;16.92;9.18;;;0.60;95.70;;;;;;4999013;28;20336;-62
2021/01/09 10:46:26;;;;;;;18.80;10.43;;;0.60;95.80;;;;;;4998386;28;20053;-62
2021/01/09 10:48:52;;;;;;;18.05;9.60;;;0.60;95.70;;;;;;4998296;28;20037;-62
2021/01/09 10:51:22;;;;;;;18.20;9.30;;;0.60;95.70;;;;;;4999214;28;20645;-62
2021/01/09 10:53:49;;;;;;;17.30;10.30;;;0.70;95.90;;;;;;4997630;28;20098;-62
2021/01/09 10:56:15;;;;;;;16.42;8.75;;;0.70;95.60;;;;;;4999246;28;20816;-62
2021/01/09 10:58:41;;;;;;;16.38;9.20;;;0.70;95.60;;;;;;4999369;28;20041;-62
2021/01/09 11:01:08;;;;;;;18.23;9.02;;;0.80;95.40;;;;;;5000128;28;20842;-63
2021/01/09 11:03:35;;;;;;;26.48;15.30;;;0.60;95.20;;;;;;5020772;28;20173;-63
2021/01/09 11:06:01;;;;;;;19.52;10.32;;;0.60;95.50;;;;;;5023812;28;20033;-69
2021/01/09 11:08:27;;;;;;;16.65;9.90;;;0.60;95.50;;;;;;5016581;28;20054;-63
2021/01/09 11:10:54;;;;;;;16.77;9.60;;;0.60;95.50;;;;;;5021673;28;20033;-63
2021/01/09 11:13:19;;;;;;;16.42;8.93;;;0.60;95.70;;;;;;5020499;28;20113;-62
2021/01/09 11:15:47;;;;;;;16.30;9.23;;;0.60;95.60;;;;;;5021836;28;20074;-62
2021/01/09 11:18:13;;;;;;;14.18;8.05;;;0.60;95.50;;;;;;5022807;28;20196;-62
2021/01/09 11:20:39;;;;;;;16.88;9.25;;;0.70;95.70;;;;;;5021474;28;20429;-62
2021/01/09 11:23:05;;;;;;;16.13;9.68;;;0.70;95.50;;;;;;5024619;28;20064;-61
2021/01/09 11:25:31;;;;;;;15.10;8.63;;;0.70;95.40;;;;;;5015452;28;20026;-62
2021/01/09 11:27:58;;;;;;;17.58;9.57;;;0.70;95.40;;;;;;5020731;28;20033;-60
2021/01/09 11:30:24;;;;;;;18.80;10.02;;;0.70;95.50;;;;;;5017655;28;20121;-63
2021/01/09 11:32:49;;;;;;;15.98;9.13;;;0.80;95.70;;;;;;5006874;28;20040;-63
2021/01/09 11:35:15;;;;;;;18.08;10.55;;;0.80;95.40;;;;;;5009625;28;20037;-63
2021/01/09 11:37:41;;;;;;;19.10;9.30;;;0.80;95.20;;;;;;5010145;28;20026;-65
2021/01/09 11:40:07;;;;;;;16.38;9.40;;;0.80;95.30;;;;;;5007486;28;20026;-63
2021/01/09 11:42:32;;;;;;;14.88;8.80;;;0.70;95.00;;;;;;5017254;28;20041;-64
2021/01/09 11:44:58;;;;;;;15.50;8.88;;;0.80;95.20;;;;;;5025579;28;20049;-64
2021/01/09 11:47:23;;;;;;;15.52;9.52;;;0.80;94.90;;;;;;5023514;28;20067;-64
2021/01/09 11:49:49;;;;;;;14.50;8.45;;;0.80;95.10;;;;;;5025990;28;20113;-63
2021/01/09 11:52:15;;;;;;;15.18;9.10;;;0.80;94.70;;;;;;5020526;28;20025;-64
2021/01/09 11:54:40;;;;;;;15.27;8.80;;;0.80;94.90;;;;;;5026256;28;20360;-64
2021/01/09 11:57:06;;;;;;;14.18;8.48;;;0.90;94.90;;;;;;5026580;28;20076;-64
2021/01/09 11:59:32;;;;;;;15.30;9.50;;;0.80;94.90;;;;;;5023330;28;20496;-64
2021/01/09 12:01:57;;;;;;;19.90;13.88;;;0.80;95.10;;;;;;5000410;28;20022;-64
2021/01/09 12:04:23;;;;;;;17.23;9.80;;;0.60;94.80;;;;;;5011190;28;20105;-64
2021/01/09 12:06:49;;;;;;;16.17;9.57;;;0.60;95.30;;;;;;5014031;28;20030;-62
2021/01/09 12:09:15;;;;;;;15.45;9.60;;;0.40;95.30;;;;;;5022022;28;20022;-65
2021/01/09 12:11:41;;;;;;;32.05;27.58;;;0.50;95.70;;;;;;5015632;28;20094;-60
2021/01/09 12:14:07;;;;;;;17.60;9.73;;;0.60;95.70;;;;;;5025336;28;20124;-61
2021/01/09 12:16:34;;;;;;;15.30;9.15;;;0.50;95.50;;;;;;5027386;28;20656;-61
2021/01/09 12:19:00;;;;;;;19.45;10.52;;;0.50;95.50;;;;;;5013664;28;20105;-61
2021/01/09 12:21:29;;;;;;;17.48;9.60;;;0.50;95.60;;;;;;5016072;28;20029;-61
2021/01/09 12:23:56;;;;;;;16.73;10.43;;;0.60;95.70;;;;;;5023433;28;20108;-61
2021/01/09 12:26:22;;;;;;;16.38;10.48;;;0.60;95.40;;;;;;5035832;23;20049;-66
2021/01/09 12:28:47;;;;;;;17.67;10.20;;;0.50;95.30;;;;;;5020318;28;20041;-66
2021/01/09 12:31:13;;;;;;;17.05;10.82;;;0.60;95.60;;;;;;5025961;28;20532;-65
2021/01/09 12:33:42;;;;;;;17.02;10.27;;;0.50;95.30;;;;;;5026003;28;20028;-65
2021/01/09 12:36:09;;;;;;;15.63;10.40;;;0.50;94.90;;;;;;5031016;28;20063;-66
2021/01/09 12:38:37;;;;;;;13.73;8.32;;;0.60;95.10;;;;;;5044054;28;20025;-65
2021/01/09 12:41:02;;;;;;;13.65;8.32;;;0.60;95.20;;;;;;5043443;28;20045;-66
2021/01/09 12:43:28;;;;;;;17.70;9.80;;;0.60;94.80;;;;;;5040601;28;20101;-66